Time;durP1;ratioP1;P1;durP2;ratioP2;P2;SDS_P1;SDS_P2;PMS_P1;PMS_P2;Temp;Humidity;BMP_temperature;BMP_pressure;BME280_temperature;BME280_humidity;BME280_pressure;Samples;Min_cycle;Max_cycle;Signal;HPM_P1;HPM_P2
2021/11/22 00:02:19;;;;;;;18.20;14.60;;;;;;;6.18;73.76;99056.31;5077278;23;20233;-82
2021/11/22 00:05:08;;;;;;;18.00;14.93;;;;;;;6.15;73.90;99046.09;5077351;23;20221;-82
2021/11/22 00:07:47;;;;;;;18.60;14.90;;;;;;;6.13;74.19;99050.78;5036089;28;20236;-82
2021/11/22 00:10:57;;;;;;;17.90;14.73;;;;;;;6.07;74.40;99046.28;5054936;28;20224;-80
2021/11/22 00:13:38;;;;;;;17.70;15.00;;;;;;;6.11;74.30;99049.38;5071052;28;20189;-82
2021/11/22 00:16:37;;;;;;;19.27;15.47;;;;;;;6.12;74.78;99061.63;5069926;28;20253;-82
2021/11/22 00:19:22;;;;;;;19.60;15.43;;;;;;;6.03;74.91;99054.88;5222497;23;20233;-82
2021/11/22 00:22:33;;;;;;;18.60;15.23;;;;;;;6.12;75.30;99062.44;5053140;28;20237;-82
2021/11/22 00:25:15;;;;;;;19.27;15.07;;;;;;;6.13;75.28;99063.25;5110398;23;20228;-81
2021/11/22 00:28:04;;;;;;;20.97;15.83;;;;;;;6.15;74.38;99054.06;5107081;28;20220;-82
2021/11/22 00:31:06;;;;;;;20.47;15.53;;;;;;;6.12;73.90;99053.63;5116432;22;20233;-81
2021/11/22 00:33:47;;;;;;;19.10;15.60;;;;;;;6.05;74.09;99034.22;5089867;28;20231;-81
2021/11/22 00:36:37;;;;;;;19.37;15.57;;;;;;;6.16;74.18;99054.84;5109226;28;20219;-82
2021/11/22 00:39:40;;;;;;;19.47;15.00;;;;;;;6.14;74.77;99064.91;5118639;22;20235;-83
2021/11/22 00:42:33;;;;;;;18.53;15.17;;;;;;;6.30;73.06;99064.47;5108734;22;20228;-81
2021/11/22 00:45:16;;;;;;;19.47;15.43;;;;;;;6.23;73.82;99065.50;5091852;28;20614;-82
2021/11/22 00:47:58;;;;;;;19.63;14.97;;;;;;;6.09;73.66;99060.19;5092910;28;20240;-82
2021/11/22 00:50:49;;;;;;;19.60;15.07;;;;;;;6.19;74.12;99078.41;5090122;28;20216;-82
2021/11/22 00:53:18;;;;;;;19.70;14.70;;;;;;;6.18;73.62;99080.25;5080487;28;20392;-81
2021/11/22 00:56:06;;;;;;;17.70;13.73;;;;;;;6.15;74.81;99085.16;5087404;28;20212;-82
2021/11/22 00:59:06;;;;;;;18.03;14.57;;;;;;;6.14;75.15;99078.19;5078302;28;20231;-82
2021/11/22 01:02:22;;;;;;;17.50;14.07;;;;;;;6.19;74.46;99079.22;5083976;22;20256;-82
2021/11/22 01:05:39;;;;;;;18.90;14.03;;;;;;;6.14;74.97;99079.03;5079081;23;20256;-81
2021/11/22 01:08:44;;;;;;;20.13;14.97;;;;;;;6.23;74.44;99076.97;5093308;28;20260;-82
2021/11/22 01:11:18;;;;;;;17.27;14.50;;;;;;;6.18;74.34;99080.25;5090994;28;20575;-82
2021/11/22 01:13:48;;;;;;;19.30;13.93;;;;;;;6.19;74.59;99081.06;5096998;28;20205;-81
2021/11/22 01:16:20;;;;;;;18.13;13.97;;;;;;;6.17;74.77;99077.78;5112245;22;20227;-82
2021/11/22 01:19:04;;;;;;;17.90;14.23;;;;;;;6.24;74.05;99085.78;5116881;28;20181;-82
2021/11/22 01:22:34;;;;;;;17.23;13.90;;;;;;;6.21;74.66;99084.31;5115444;28;20224;-82
2021/11/22 01:25:49;;;;;;;19.10;14.40;;;;;;;6.22;74.94;99091.28;5122336;22;20238;-81
2021/11/22 01:28:44;;;;;;;19.67;14.07;;;;;;;6.13;74.08;99064.06;5124017;22;20224;-82
2021/11/22 01:31:35;;;;;;;19.03;13.90;;;;;;;6.23;74.16;99082.28;5074597;23;20231;-81
2021/11/22 01:34:30;;;;;;;15.80;12.97;;;;;;;6.24;74.38;99091.91;5111836;28;20247;-81
2021/11/22 01:37:21;;;;;;;20.53;13.57;;;;;;;6.33;73.75;99073.91;5106970;22;21023;-82
2021/11/22 01:39:59;;;;;;;17.43;13.67;;;;;;;6.37;73.15;99093.75;5124164;22;20232;-81
2021/11/22 01:42:42;;;;;;;19.00;13.13;;;;;;;6.31;73.50;99092.72;5117517;28;20204;-81
2021/11/22 01:45:27;;;;;;;16.73;13.10;;;;;;;6.30;73.21;99091.06;5123232;22;20224;-81
2021/11/22 01:48:53;;;;;;;18.60;12.63;;;;;;;6.20;73.80;99098.66;5114605;28;20236;-82
2021/11/22 01:51:53;;;;;;;15.87;12.47;;;;;;;6.22;74.38;99101.09;5122698;22;20220;-82
2021/11/22 01:54:27;;;;;;;17.10;12.57;;;;;;;6.20;73.94;99107.44;5116989;28;20190;-82
2021/11/22 01:57:25;;;;;;;16.33;12.73;;;;;;;6.24;73.33;99104.41;5085841;28;20256;-82
2021/11/22 02:00:58;;;;;;;16.80;12.37;;;;;;;6.18;74.13;99103.38;5113152;28;20236;-82
2021/11/22 02:03:35;;;;;;;18.67;13.53;;;;;;;6.20;74.28;99101.34;5079366;28;20224;-82
2021/11/22 02:06:42;;;;;;;15.93;12.80;;;;;;;6.21;73.81;99097.63;5110531;22;20256;-80
2021/11/22 02:09:32;;;;;;;18.40;13.30;;;;;;;6.18;74.26;99098.03;5092716;28;20308;-81
2021/11/22 02:12:40;;;;;;;18.40;13.13;;;;;;;6.19;74.24;99097.84;5092873;28;20221;-81
2021/11/22 02:15:25;;;;;;;18.77;13.73;;;;;;;6.20;74.27;99096.81;5097521;22;20224;-82
2021/11/22 02:18:41;;;;;;;16.53;12.90;;;;;;;6.19;74.03;99087.22;5060833;28;20284;-82
2021/11/22 02:21:37;;;;;;;17.87;13.53;;;;;;;6.15;74.81;99080.66;5072236;28;20225;-82
2021/11/22 02:24:19;;;;;;;17.10;12.80;;;;;;;6.19;75.47;99092.53;5074711;28;20584;-82
2021/11/22 02:27:13;;;;;;;18.17;12.90;;;;;;;6.18;75.42;99098.03;5074053;28;20237;-82
2021/11/22 02:30:19;;;;;;;18.10;14.17;;;;;;;6.05;75.22;99088.22;5123161;23;20216;-81
2021/11/22 02:33:06;;;;;;;16.90;13.10;;;;;;;6.20;74.96;99111.97;5123202;22;20185;-81
2021/11/22 02:35:49;;;;;;;17.53;13.80;;;;;;;6.25;74.83;99117.50;5084676;23;20221;-83
2021/11/22 02:38:39;;;;;;;18.73;13.03;;;;;;;6.22;74.30;99112.56;5105442;22;20247;-82
2021/11/22 02:41:23;;;;;;;17.63;13.40;;;;;;;6.17;75.30;99101.72;5114955;28;20220;-83
2021/11/22 02:44:16;;;;;;;19.40;13.97;;;;;;;6.22;75.02;99119.72;5115951;28;20247;-82
2021/11/22 02:47:25;;;;;;;19.03;13.40;;;;;;;6.18;75.28;99122.81;5113964;28;20224;-80
2021/11/22 02:50:14;;;;;;;16.40;13.20;;;;;;;6.23;74.85;99129.34;5112172;28;20228;-82
2021/11/22 02:52:47;;;;;;;17.87;13.63;;;;;;;6.24;75.03;99131.81;5095129;28;20224;-81
2021/11/22 02:55:42;;;;;;;18.77;14.00;;;;;;;6.25;75.01;99130.81;5111877;28;20238;-82
2021/11/22 02:58:38;;;;;;;17.70;12.93;;;;;;;6.29;74.62;99129.38;5113173;28;20219;-82
2021/11/22 03:01:53;;;;;;;18.77;13.47;;;;;;;6.24;74.58;99131.00;5112304;28;20224;-82
2021/11/22 03:04:46;;;;;;;17.93;13.07;;;;;;;6.24;74.25;99133.66;5111519;28;20232;-82
2021/11/22 03:07:31;;;;;;;20.77;14.43;;;;;;;6.20;74.36;99111.97;5113264;28;20184;-81
2021/11/22 03:10:51;;;;;;;17.63;13.17;;;;;;;6.24;74.21;99131.81;5112073;28;20616;-81
2021/11/22 03:13:56;;;;;;;17.23;13.13;;;;;;;6.28;74.18;99133.03;5113302;28;20247;-81
2021/11/22 03:16:39;;;;;;;17.23;13.37;;;;;;;6.23;74.39;99132.84;5118969;22;20277;-82
2021/11/22 03:19:21;;;;;;;17.23;13.47;;;;;;;6.21;74.13;99134.88;5111741;28;20223;-80
2021/11/22 03:22:10;;;;;;;19.00;13.97;;;;;;;6.23;74.02;99140.00;5112247;28;20226;-79
2021/11/22 03:24:58;;;;;;;18.87;13.77;;;;;;;6.28;74.10;99137.53;5112140;28;20232;-82
2021/11/22 03:27:55;;;;;;;20.10;14.00;;;;;;;6.29;73.71;99137.34;5110814;28;20240;-82
2021/11/22 03:30:39;;;;;;;17.37;13.87;;;;;;;6.20;73.11;99139.34;5120527;22;20220;-82
2021/11/22 03:33:35;;;;;;;18.70;14.73;;;;;;;6.26;73.30;99140.41;5101091;23;20246;-82
2021/11/22 03:36:15;;;;;;;17.77;14.57;;;;;;;6.31;72.12;99145.94;5120412;22;20259;-82
2021/11/22 03:39:24;;;;;;;19.83;15.37;;;;;;;6.32;71.49;99141.44;5113291;28;20212;-81
2021/11/22 03:42:14;;;;;;;20.07;15.30;;;;;;;6.20;71.67;99147.34;5112328;28;20262;-82
2021/11/22 03:44:58;;;;;;;22.47;16.20;;;;;;;6.16;71.09;99135.47;5118844;22;20224;-81
2021/11/22 03:47:28;;;;;;;19.77;15.47;;;;;;;6.28;71.74;99154.31;5079064;28;20195;-81
2021/11/22 03:50:11;;;;;;;20.37;15.53;;;;;;;6.20;71.88;99151.88;5112696;28;20208;-81
2021/11/22 03:52:58;;;;;;;20.57;16.43;;;;;;;6.19;70.85;99148.38;5080333;28;20231;-81
2021/11/22 03:55:38;;;;;;;18.77;16.03;;;;;;;6.16;71.61;99158.59;5111345;28;20232;-81
2021/11/22 04:01:59;;;;;;;23.13;16.67;;;;;;;6.19;70.83;99147.56;5113149;28;20232;-82
2021/11/22 04:04:55;;;;;;;20.27;15.70;;;;;;;6.14;71.20;99150.00;5116505;22;20273;-82
2021/11/22 04:07:27;;;;;;;21.37;16.60;;;;;;;6.10;71.13;99141.63;5119667;22;20232;-82
2021/11/22 04:10:04;;;;;;;23.83;17.00;;;;;;;6.27;71.00;99150.03;5111603;28;20639;-81
2021/11/22 04:12:41;;;;;;;21.77;16.70;;;;;;;6.19;70.78;99148.38;5112999;28;20176;-82
2021/11/22 04:15:21;;;;;;;21.57;16.17;;;;;;;6.20;70.96;99157.19;5112870;28;20227;-81
2021/11/22 04:18:06;;;;;;;23.73;17.03;;;;;;;6.16;71.57;99161.25;5113784;28;20217;-81
2021/11/22 04:21:05;;;;;;;22.20;15.50;;;;;;;6.14;71.44;99156.16;5030890;28;20282;-82
2021/11/22 04:23:44;;;;;;;21.10;15.83;;;;;;;6.12;71.10;99166.16;5055149;22;20255;-81
2021/11/22 04:26:14;;;;;;;20.60;15.97;;;;;;;6.08;71.78;99167.59;5074286;28;20216;-81
2021/11/22 04:28:47;;;;;;;23.17;15.57;;;;;;;6.15;71.49;99168.44;5091295;28;20295;-81
2021/11/22 04:31:35;;;;;;;19.53;14.73;;;;;;;6.07;71.35;99160.63;5092698;28;20212;-81
2021/11/22 04:34:39;;;;;;;22.67;15.10;;;;;;;6.04;71.57;99178.84;5091091;28;20200;-82
2021/11/22 04:37:28;;;;;;;19.03;14.53;;;;;;;6.00;71.78;99170.44;5093120;28;20238;-82
2021/11/22 04:40:10;;;;;;;20.77;15.20;;;;;;;6.08;72.01;99185.38;5107165;22;20232;-81
2021/11/22 04:43:22;;;;;;;17.47;13.97;;;;;;;6.12;72.27;99183.97;5114901;28;20160;-82
2021/11/22 04:46:07;;;;;;;19.13;15.13;;;;;;;6.00;72.18;99181.09;5114985;28;20232;-82
2021/11/22 04:49:21;;;;;;;20.50;14.10;;;;;;;6.04;72.08;99171.69;5068612;23;20234;-83
2021/11/22 04:51:49;;;;;;;20.20;14.53;;;;;;;6.19;71.22;99193.59;5054243;28;20190;-82
2021/11/22 04:54:41;;;;;;;18.87;14.60;;;;;;;6.14;71.39;99195.22;5054325;28;20163;-81
2021/11/22 04:57:16;;;;;;;19.07;14.53;;;;;;;6.07;70.98;99179.25;5064100;23;20186;-81
2021/11/22 05:00:02;;;;;;;17.40;13.27;;;;;;;6.17;71.15;99190.31;5097619;28;20220;-82
2021/11/22 05:02:45;;;;;;;18.27;14.67;;;;;;;6.22;70.83;99191.56;5114099;28;20203;-82
2021/11/22 05:05:48;;;;;;;18.70;14.07;;;;;;;6.19;71.11;99188.28;5088475;22;20223;-82
2021/11/22 05:08:48;;;;;;;16.37;12.40;;;;;;;6.18;71.43;99196.47;5100943;28;20223;-82
2021/11/22 05:11:24;;;;;;;17.00;13.27;;;;;;;6.15;71.37;99184.41;5102376;22;20188;-82
2021/11/22 05:14:21;;;;;;;17.37;12.93;;;;;;;6.17;71.77;99192.97;5113216;28;20203;-82
2021/11/22 05:17:10;;;;;;;17.67;13.63;;;;;;;6.16;71.83;99180.69;5121559;22;20235;-82
2021/11/22 05:19:55;;;;;;;17.97;13.40;;;;;;;6.17;71.13;99177.03;5070592;28;20229;-83
2021/11/22 05:22:41;;;;;;;17.10;12.97;;;;;;;6.28;70.66;99198.72;5073074;28;20294;-83
2021/11/22 05:25:24;;;;;;;16.83;13.27;;;;;;;6.20;71.09;99187.25;5072639;28;20226;-82
2021/11/22 05:28:06;;;;;;;18.43;13.93;;;;;;;6.13;70.92;99183.78;5072673;28;20232;-83
2021/11/22 05:30:55;;;;;;;16.30;12.97;;;;;;;6.30;70.83;99202.03;5078503;23;20224;-82
2021/11/22 05:33:23;;;;;;;17.13;13.93;;;;;;;6.25;71.14;99207.13;5072527;23;20222;-83
2021/11/22 05:36:21;;;;;;;18.23;13.47;;;;;;;6.28;71.28;99212.03;5064706;22;20229;-83
2021/11/22 05:39:06;;;;;;;17.87;13.47;;;;;;;6.24;71.22;99202.81;5071983;28;20232;-82
2021/11/22 05:41:37;;;;;;;16.90;13.63;;;;;;;6.20;71.53;99213.84;5088333;28;20219;-81
2021/11/22 05:44:06;;;;;;;18.63;14.97;;;;;;;6.18;71.56;99215.91;5071306;28;20616;-82
2021/11/22 05:46:56;;;;;;;17.13;13.47;;;;;;;6.18;71.98;99215.91;5070667;28;20220;-82
2021/11/22 05:49:51;;;;;;;17.70;13.57;;;;;;;6.15;72.17;99213.66;5099566;22;20228;-81
2021/11/22 05:52:25;;;;;;;18.47;13.80;;;;;;;6.13;72.09;99214.88;5095233;28;20243;-82
2021/11/22 05:54:57;;;;;;;17.53;13.57;;;;;;;6.18;71.92;99217.75;5113807;28;20212;-81
2021/11/22 05:57:27;;;;;;;18.87;13.90;;;;;;;6.18;71.84;99210.59;5112209;28;20187;-82
2021/11/22 06:00:08;;;;;;;17.80;13.37;;;;;;;6.19;72.18;99225.53;5113577;22;20255;-83
2021/11/22 06:02:41;;;;;;;18.03;13.63;;;;;;;6.20;71.34;99229.00;5091554;28;20212;-82
2021/11/22 06:05:12;;;;;;;18.17;13.77;;;;;;;6.17;71.81;99229.41;5083611;22;20213;-82
2021/11/22 06:07:44;;;;;;;19.20;14.30;;;;;;;6.18;71.37;99247.81;5055852;28;20259;-82
2021/11/22 06:10:15;;;;;;;20.17;14.90;;;;;;;6.24;71.29;99246.22;5072464;28;20256;-82
2021/11/22 06:12:42;;;;;;;18.00;13.93;;;;;;;6.20;71.35;99223.69;5089948;23;20749;-82
2021/11/22 06:15:12;;;;;;;17.63;13.67;;;;;;;6.17;71.00;99242.69;5111241;28;20530;-82
2021/11/22 06:17:40;;;;;;;17.87;13.63;;;;;;;6.15;71.65;99252.72;5111608;28;20207;-82
2021/11/22 06:20:08;;;;;;;18.70;13.87;;;;;;;6.30;71.18;99268.53;5091999;28;20300;-81
2021/11/22 06:22:40;;;;;;;17.87;13.57;;;;;;;6.26;71.77;99261.94;5091769;28;20248;-81
2021/11/22 06:25:07;;;;;;;15.63;12.50;;;;;;;6.20;71.57;99268.91;5092784;28;20216;-84
2021/11/22 06:27:35;;;;;;;16.57;12.87;;;;;;;6.29;71.45;99270.38;5100260;22;20251;-82
2021/11/22 06:30:05;;;;;;;16.83;12.90;;;;;;;6.29;71.69;99281.00;5092338;28;20285;-83
2021/11/22 06:32:32;;;;;;;16.17;12.97;;;;;;;6.29;71.47;99282.84;5092979;28;20258;-83
2021/11/22 06:34:59;;;;;;;17.33;13.57;;;;;;;6.30;71.81;99289.81;5085691;22;20223;-81
2021/11/22 06:37:31;;;;;;;19.07;13.67;;;;;;;6.38;70.96;99289.63;5109831;28;20228;-83
2021/11/22 06:40:11;;;;;;;18.50;14.17;;;;;;;6.38;71.64;99298.44;5110346;28;20208;-82
2021/11/22 06:42:39;;;;;;;18.57;14.17;;;;;;;6.39;71.17;99297.38;5112122;28;20222;-81
2021/11/22 06:45:10;;;;;;;19.63;14.07;;;;;;;6.42;70.88;99296.19;5132123;22;20231;-81
2021/11/22 06:47:39;;;;;;;18.17;13.33;;;;;;;6.37;71.01;99290.66;5090257;28;20232;-82
2021/11/22 06:50:07;;;;;;;18.83;13.40;;;;;;;6.39;70.94;99286.75;5088786;28;20273;-83
2021/11/22 06:52:51;;;;;;;18.77;14.63;;;;;;;6.49;70.41;99297.84;5089723;28;20251;-82
2021/11/22 06:55:24;;;;;;;19.33;14.43;;;;;;;6.52;70.82;99299.28;5089883;28;20225;-83
2021/11/22 06:57:53;;;;;;;19.03;14.70;;;;;;;6.44;70.26;99300.28;5191108;22;20296;-82
2021/11/22 07:00:24;;;;;;;19.27;14.47;;;;;;;6.50;70.66;99315.44;5106960;23;20246;-82
2021/11/22 07:02:55;;;;;;;18.70;14.60;;;;;;;6.49;70.76;99307.66;5109487;28;20232;-82
2021/11/22 07:05:25;;;;;;;19.67;14.93;;;;;;;6.59;70.17;99311.56;5092985;28;20764;-81
2021/11/22 07:07:54;;;;;;;20.53;14.40;;;;;;;6.57;70.02;99320.81;5109262;28;20273;-82
2021/11/22 07:10:23;;;;;;;19.33;14.53;;;;;;;6.50;70.67;99296.00;5109258;28;20238;-81
2021/11/22 07:12:53;;;;;;;19.00;14.77;;;;;;;6.60;70.10;99312.41;5110708;28;20489;-82
2021/11/22 07:15:34;;;;;;;18.93;14.23;;;;;;;6.62;69.50;99318.34;5106927;28;20258;-81
2021/11/22 07:18:16;;;;;;;20.40;14.73;;;;;;;6.73;68.66;99315.09;5105688;28;20228;-82
2021/11/22 07:20:54;;;;;;;18.43;14.00;;;;;;;6.70;67.71;99304.84;5113785;23;20227;-81
2021/11/22 07:23:36;;;;;;;20.80;14.97;;;;;;;6.69;67.35;99303.19;5107948;28;20232;-81
2021/11/22 07:26:11;;;;;;;18.00;14.50;;;;;;;6.86;67.63;99316.97;5107090;28;20227;-81
2021/11/22 07:28:42;;;;;;;18.27;14.60;;;;;;;6.92;67.26;99326.78;5088697;28;20251;-81
2021/11/22 07:31:10;;;;;;;18.60;14.50;;;;;;;6.95;67.40;99326.41;5052395;28;20221;-82
2021/11/22 07:33:37;;;;;;;17.60;14.33;;;;;;;6.93;66.98;99313.28;5093686;28;20237;-82
2021/11/22 07:36:06;;;;;;;17.33;13.17;;;;;;;7.01;66.76;99320.22;5087427;28;20242;-83
2021/11/22 07:38:35;;;;;;;16.43;13.27;;;;;;;7.20;66.15;99329.25;5089627;28;20227;-82
2021/11/22 07:41:02;;;;;;;17.87;13.53;;;;;;;7.12;66.09;99316.16;5075166;28;20345;-82
2021/11/22 07:43:35;;;;;;;17.03;13.77;;;;;;;7.22;66.03;99338.72;5061571;28;20188;-82
2021/11/22 07:46:02;;;;;;;16.13;12.67;;;;;;;7.19;65.95;99335.59;5087016;28;20287;-82
2021/11/22 07:48:36;;;;;;;17.17;12.80;;;;;;;7.20;65.84;99345.25;5105781;28;20252;-82
2021/11/22 07:51:04;;;;;;;18.77;14.30;;;;;;;7.29;66.96;99355.50;5089678;28;20234;-82
2021/11/22 07:53:39;;;;;;;16.13;12.50;;;;;;;7.45;65.84;99364.94;5107838;28;20212;-82
2021/11/22 07:56:08;;;;;;;17.73;14.33;;;;;;;7.40;66.27;99367.41;5089799;28;20220;-83
2021/11/22 07:58:40;;;;;;;17.20;12.97;;;;;;;7.41;65.89;99361.88;5089908;28;20208;-82
2021/11/22 08:01:17;;;;;;;17.17;13.20;;;;;;;7.56;65.17;99356.31;5087138;28;20228;-83
2021/11/22 08:04:13;;;;;;;17.10;13.70;;;;;;;7.63;64.40;99364.31;5086904;28;20176;-81
2021/11/22 08:06:47;;;;;;;18.30;13.57;;;;;;;7.72;64.88;99365.72;5106389;23;20236;-83
2021/11/22 08:09:34;;;;;;;18.07;13.07;;;;;;;7.69;65.23;99366.97;5107676;28;20308;-82
2021/11/22 08:14:39;;;;;;;15.57;12.97;;;;;;;7.71;63.47;99359.56;5069087;28;20250;-82
2021/11/22 08:17:13;;;;;;;16.20;13.30;;;;;;;7.75;63.81;99374.13;5083934;28;20658;-82
2021/11/22 08:19:43;;;;;;;18.97;14.20;;;;;;;7.86;63.63;99368.16;5105919;28;20188;-82
2021/11/22 08:22:12;;;;;;;18.43;14.20;;;;;;;7.91;63.57;99383.53;5088156;28;20239;-82
2021/11/22 08:24:48;;;;;;;17.60;13.40;;;;;;;7.84;63.20;99377.38;5063363;22;20533;-82
2021/11/22 08:27:29;;;;;;;19.73;14.33;;;;;;;7.91;64.23;99389.69;5070496;23;20220;-82
2021/11/22 08:30:01;;;;;;;19.10;14.37;;;;;;;7.98;63.90;99395.81;5047955;28;20229;-82
2021/11/22 08:32:28;;;;;;;17.00;13.93;;;;;;;8.08;63.83;99398.06;5067502;28;20256;-82
2021/11/22 08:34:58;;;;;;;18.30;14.43;;;;;;;8.01;63.04;99380.44;5067241;28;20300;-81
2021/11/22 08:37:35;;;;;;;17.77;13.70;;;;;;;8.21;63.14;99398.03;5081797;28;20308;-83
2021/11/22 08:40:06;;;;;;;18.30;13.97;;;;;;;8.23;63.28;99398.66;5071557;23;20229;-83
2021/11/22 08:42:36;;;;;;;19.90;14.30;;;;;;;8.25;62.89;99398.44;5082651;28;20276;-82
2021/11/22 08:45:08;;;;;;;18.67;15.20;;;;;;;8.28;63.21;99398.84;5065997;28;20209;-82
2021/11/22 08:47:37;;;;;;;18.60;14.73;;;;;;;8.26;63.00;99397.41;5063636;28;20686;-82
2021/11/22 08:50:13;;;;;;;18.03;14.20;;;;;;;8.26;63.20;99402.72;5064899;28;20217;-83
2021/11/22 08:52:44;;;;;;;19.33;15.10;;;;;;;8.21;63.07;99398.03;5078378;28;20232;-82
2021/11/22 08:55:18;;;;;;;19.17;14.77;;;;;;;8.23;62.98;99411.16;5045968;28;20237;-82
2021/11/22 08:57:49;;;;;;;19.37;14.47;;;;;;;8.19;62.71;99409.97;5029610;28;20289;-82
2021/11/22 09:00:21;;;;;;;18.87;14.77;;;;;;;8.23;63.69;99412.00;5060468;23;20601;-82
2021/11/22 09:02:49;;;;;;;24.47;15.90;;;;;;;8.12;63.92;99428.63;5087987;28;20224;-82
2021/11/22 09:05:18;;;;;;;18.70;14.77;;;;;;;8.13;63.93;99429.47;5106551;28;20224;-83
2021/11/22 09:07:44;;;;;;;20.00;14.67;;;;;;;8.04;64.11;99422.72;5082512;28;20289;-82
2021/11/22 09:10:17;;;;;;;18.67;14.53;;;;;;;7.90;64.65;99429.91;5111667;23;20232;-83
2021/11/22 09:12:46;;;;;;;19.03;14.50;;;;;;;7.92;64.31;99423.34;5088942;28;20242;-82
2021/11/22 09:15:24;;;;;;;19.47;15.33;;;;;;;7.99;64.47;99426.00;5090889;28;20537;-82
2021/11/22 09:17:57;;;;;;;18.73;14.67;;;;;;;7.96;64.33;99435.25;5088818;28;20228;-82
2021/11/22 09:20:29;;;;;;;20.90;15.63;;;;;;;7.90;64.32;99433.41;5070868;28;20244;-82
2021/11/22 09:23:02;;;;;;;19.97;15.17;;;;;;;7.93;64.95;99432.19;5105642;28;20224;-82
2021/11/22 09:25:49;;;;;;;20.43;15.90;;;;;;;7.88;64.70;99429.31;5108860;28;20230;-83
2021/11/22 09:28:16;;;;;;;20.13;15.63;;;;;;;7.86;64.95;99428.69;5092336;28;20200;-82
2021/11/22 09:30:43;;;;;;;21.40;16.00;;;;;;;7.80;65.18;99419.66;5112687;28;20248;-82
2021/11/22 09:33:13;;;;;;;20.53;16.03;;;;;;;7.84;65.09;99428.88;5096603;28;20228;-83
2021/11/22 09:35:40;;;;;;;19.80;15.27;;;;;;;7.83;65.32;99437.94;5092388;28;20228;-82
2021/11/22 09:38:08;;;;;;;22.33;16.33;;;;;;;7.84;65.46;99442.22;5077426;28;20693;-82
2021/11/22 09:40:39;;;;;;;21.10;16.07;;;;;;;7.75;65.39;99432.78;5111181;28;20291;-83
2021/11/22 09:43:13;;;;;;;23.07;16.97;;;;;;;7.90;65.33;99446.75;5111841;28;20299;-82
2021/11/22 09:45:46;;;;;;;22.00;16.00;;;;;;;7.81;65.28;99437.31;5111723;28;20224;-82
2021/11/22 09:48:14;;;;;;;21.13;16.03;;;;;;;7.81;65.71;99442.66;5111357;28;20207;-82
2021/11/22 09:50:43;;;;;;;21.63;16.23;;;;;;;7.83;65.44;99445.13;5110990;28;20291;-81
2021/11/22 09:53:28;;;;;;;21.40;16.17;;;;;;;7.76;65.77;99441.63;5112495;28;20228;-82
2021/11/22 09:56:22;;;;;;;20.70;16.73;;;;;;;7.79;66.06;99439.34;5113349;28;20279;-82
2021/11/22 09:59:01;;;;;;;22.07;16.10;;;;;;;7.87;66.32;99441.00;5096150;28;20688;-83
2021/11/22 10:01:36;;;;;;;21.53;16.37;;;;;;;8.00;65.90;99448.16;5110462;28;20235;-83
2021/11/22 10:04:31;;;;;;;21.63;16.90;;;;;;;7.95;65.64;99432.78;5111670;28;20220;-83
2021/11/22 10:07:15;;;;;;;22.80;17.27;;;;;;;7.89;66.09;99430.94;5094803;28;20215;-82
2021/11/22 10:09:46;;;;;;;22.63;16.87;;;;;;;7.98;65.14;99432.34;5092282;28;20540;-83
2021/11/22 10:12:25;;;;;;;20.53;16.07;;;;;;;7.97;65.84;99436.06;5093657;28;20277;-82
2021/11/22 10:15:16;;;;;;;21.30;16.20;;;;;;;8.10;65.94;99440.56;5096757;28;20206;-82
2021/11/22 10:17:45;;;;;;;21.53;15.37;;;;;;;7.87;64.81;99425.00;5092870;28;20247;-82
2021/11/22 10:20:20;;;;;;;20.00;15.53;;;;;;;8.11;64.97;99431.53;5098447;28;20188;-83
2021/11/22 10:23:23;;;;;;;20.43;16.23;;;;;;;8.02;64.85;99414.09;5115589;28;20225;-83
2021/11/22 10:25:53;;;;;;;21.87;16.20;;;;;;;8.07;64.91;99435.66;5121045;22;20230;-82
2021/11/22 10:28:53;;;;;;;22.17;16.10;;;;;;;8.20;65.49;99449.78;5105150;22;20251;-80
2021/11/22 10:31:29;;;;;;;20.70;15.47;;;;;;;8.17;65.05;99439.50;5100979;28;20245;-82
2021/11/22 10:34:24;;;;;;;19.13;15.87;;;;;;;8.13;65.63;99440.13;5123501;22;20224;-82
2021/11/22 10:37:02;;;;;;;20.87;15.47;;;;;;;7.99;65.90;99428.66;5088934;23;20208;-84
2021/11/22 10:39:36;;;;;;;21.23;15.97;;;;;;;7.96;66.27;99437.09;5067491;23;20230;-82
2021/11/22 10:42:42;;;;;;;22.67;16.53;;;;;;;7.99;65.63;99450.00;5021716;28;20225;-82
2021/11/22 10:46:09;;;;;;;20.03;16.07;;;;;;;8.02;65.86;99443.47;5069172;23;20314;-80
2021/11/22 10:48:47;;;;;;;20.80;16.03;;;;;;;7.87;66.89;99451.69;5031649;23;20234;-82
2021/11/22 10:51:42;;;;;;;20.93;16.30;;;;;;;7.97;66.39;99442.25;5061025;23;20222;-82
2021/11/22 10:54:23;;;;;;;20.93;16.10;;;;;;;7.95;66.61;99452.28;5055070;28;20230;-82
2021/11/22 10:57:12;;;;;;;23.27;17.10;;;;;;;7.87;66.48;99454.34;5055752;28;20210;-82
2021/11/22 11:00:08;;;;;;;21.83;16.33;;;;;;;7.95;66.70;99459.47;5076573;22;20225;-82
2021/11/22 11:02:57;;;;;;;23.03;17.53;;;;;;;8.14;66.20;99460.47;5054479;28;20234;-81
2021/11/22 11:05:44;;;;;;;22.10;16.73;;;;;;;8.01;66.06;99450.63;5055061;28;20186;-82
2021/11/22 11:08:35;;;;;;;23.00;17.63;;;;;;;7.97;66.25;99452.91;5065894;23;20231;-82
2021/11/22 11:11:16;;;;;;;23.07;16.93;;;;;;;7.89;66.27;99447.75;5068928;28;20188;-82
2021/11/22 11:13:49;;;;;;;22.27;17.03;;;;;;;7.88;66.79;99450.66;5070119;28;20226;-82
2021/11/22 11:16:16;;;;;;;21.77;17.10;;;;;;;7.94;66.74;99460.47;5069056;28;20225;-82
2021/11/22 11:19:08;;;;;;;22.87;16.83;;;;;;;7.94;66.63;99463.16;5050826;28;20256;-82
2021/11/22 11:21:54;;;;;;;21.43;17.00;;;;;;;7.93;67.05;99448.97;5051397;28;20221;-82
2021/11/22 11:24:21;;;;;;;22.17;16.73;;;;;;;7.92;66.64;99451.88;5050152;28;20237;-82
2021/11/22 11:26:49;;;;;;;23.97;16.67;;;;;;;7.87;67.42;99460.50;5049976;28;20233;-83
2021/11/22 11:29:18;;;;;;;22.03;16.83;;;;;;;7.97;66.79;99465.41;5073596;23;20244;-82
2021/11/22 11:31:46;;;;;;;23.60;17.33;;;;;;;8.02;66.59;99462.97;5050563;28;20259;-82
2021/11/22 11:34:14;;;;;;;22.20;17.13;;;;;;;7.98;66.74;99467.88;5049270;28;20229;-82
2021/11/22 11:36:48;;;;;;;20.87;16.57;;;;;;;8.03;66.91;99466.41;5049653;28;20225;-84
2021/11/22 11:39:53;;;;;;;23.63;17.37;;;;;;;8.17;66.12;99476.88;5082275;28;20228;-81
2021/11/22 11:42:37;;;;;;;22.63;17.07;;;;;;;8.11;66.74;99479.56;5075005;23;20280;-82
2021/11/22 11:45:26;;;;;;;20.43;15.80;;;;;;;8.07;66.54;99468.47;5051325;28;20274;-83
2021/11/22 11:48:19;;;;;;;23.57;17.23;;;;;;;8.03;66.44;99475.25;5067621;28;20225;-81
2021/11/22 11:51:05;;;;;;;20.67;16.17;;;;;;;7.94;66.99;99465.81;5067849;28;20320;-82
2021/11/22 11:54:00;;;;;;;22.50;17.07;;;;;;;7.92;67.59;99466.03;5082954;28;20244;-82
2021/11/22 11:56:33;;;;;;;20.87;16.73;;;;;;;7.97;66.88;99468.09;5067350;28;20271;-82
2021/11/22 11:59:22;;;;;;;23.97;17.80;;;;;;;7.98;67.46;99467.88;5051189;28;20233;-82
2021/11/22 12:02:08;;;;;;;23.80;17.57;;;;;;;8.09;67.73;99473.59;5077536;23;20213;-83
2021/11/22 12:04:57;;;;;;;23.10;17.27;;;;;;;8.04;67.80;99468.88;5086741;28;20305;-83
2021/11/22 12:07:46;;;;;;;23.07;17.23;;;;;;;7.96;68.06;99459.25;5088109;28;20220;-82
2021/11/22 12:10:24;;;;;;;24.47;17.97;;;;;;;7.97;68.50;99465.41;5053470;28;20694;-84
2021/11/22 12:13:02;;;;;;;23.67;17.33;;;;;;;8.05;68.59;99475.06;5070338;28;20258;-84
2021/11/22 12:15:34;;;;;;;21.93;16.60;;;;;;;7.97;68.82;99473.44;5069744;28;20228;-82
2021/11/22 12:18:39;;;;;;;20.73;16.33;;;;;;;8.05;68.50;99478.53;5086909;28;20243;-82
2021/11/22 12:21:22;;;;;;;22.07;17.27;;;;;;;8.09;68.29;99484.28;5091661;28;20229;-82
2021/11/22 12:23:56;;;;;;;24.13;17.70;;;;;;;8.04;67.46;99486.75;5032968;28;20211;-81
2021/11/22 12:26:37;;;;;;;22.07;17.90;;;;;;;8.01;67.83;99476.50;5049910;28;20237;-81
2021/11/22 12:29:07;;;;;;;23.33;16.97;;;;;;;7.77;68.46;99489.44;5032822;28;20230;-83
2021/11/22 12:31:41;;;;;;;23.17;17.73;;;;;;;7.85;68.94;99485.72;5059965;28;20256;-82
2021/11/22 12:34:32;;;;;;;23.10;17.67;;;;;;;7.98;67.71;99497.22;5058335;28;20269;-82
2021/11/22 12:37:21;;;;;;;23.77;17.30;;;;;;;8.02;67.14;99502.16;5027074;28;20230;-83
2021/11/22 12:39:48;;;;;;;21.77;16.93;;;;;;;8.07;67.52;99491.69;4994201;28;20234;-82
2021/11/22 12:42:18;;;;;;;21.17;16.47;;;;;;;8.02;68.15;99502.97;5044377;28;20260;-83